createdAt,value
2018-12-25T00:00:11.019Z,0
2018-12-25T00:01:11.471Z,0
2018-12-25T00:02:12.317Z,0
2018-12-25T00:03:12.451Z,0
2018-12-25T00:04:13.132Z,0
2018-12-25T00:05:13.816Z,0
2018-12-25T00:06:14.267Z,0
2018-12-25T00:07:14.948Z,0
2018-12-25T00:08:15.628Z,0
2018-12-25T00:09:16.511Z,0
2018-12-25T00:10:17.196Z,0
2018-12-25T00:11:17.876Z,0
2018-12-25T00:12:18.716Z,0
2018-12-25T00:13:19.399Z,0
2018-12-25T00:14:20.171Z,0
2018-12-25T00:15:20.575Z,0
2018-12-25T00:16:21.536Z,0
2018-12-25T00:17:21.943Z,0
2018-12-25T00:18:22.899Z,0
2018-12-25T00:19:23.304Z,0
2018-12-25T00:20:24.986Z,0
2018-12-25T00:21:25.115Z,0
2018-12-25T00:22:25.647Z,0
2018-12-25T00:23:26.607Z,0
2018-12-25T00:24:27.842Z,0
2018-12-25T00:25:28.524Z,0
2018-12-25T00:26:28.652Z,0
2018-12-25T00:27:30.064Z,0
2018-12-25T00:28:30.748Z,0
2018-12-25T00:29:31.430Z,0
2018-12-25T00:30:32.117Z,0
2018-12-25T00:31:32.068Z,0
2018-12-25T00:32:32.948Z,0
2018-12-25T00:33:33.351Z,0
2018-12-25T00:34:35.310Z,0
2018-12-25T00:35:35.999Z,0
2018-12-25T00:36:36.403Z,0
2018-12-25T00:37:37.083Z,0
2018-12-25T00:38:37.207Z,0
2018-12-25T00:39:38.446Z,0
2018-12-25T00:40:38.853Z,0
2018-12-25T00:41:39.256Z,0
2018-12-25T00:42:39.714Z,0
2018-12-25T00:43:40.399Z,0
2018-12-25T00:44:40.797Z,0
2018-12-25T00:45:41.203Z,0
2018-12-25T00:46:42.324Z,0
2018-12-25T00:47:44.006Z,0
2018-12-25T00:48:44.130Z,0
2018-12-25T00:49:45.535Z,0
2018-12-25T00:50:45.939Z,0
2018-12-25T00:51:46.620Z,0
2018-12-25T00:52:47.485Z,0
2018-12-25T00:53:48.004Z,0
2018-12-25T00:54:48.130Z,0
2018-12-25T00:55:49.368Z,0
2018-12-25T00:56:49.774Z,0
2018-12-25T00:57:50.457Z,0
2018-12-25T00:58:51.208Z,0
2018-12-25T00:59:51.606Z,0
2018-12-25T01:00:53.288Z,0
2018-12-25T01:01:53.692Z,0
2018-12-25T01:02:54.249Z,0
2018-12-25T01:03:54.929Z,0
2018-12-25T01:04:55.439Z,0
2018-12-25T01:05:56.424Z,0
2018-12-25T01:06:57.108Z,0
2018-12-25T01:07:57.510Z,0
2018-12-25T01:08:58.637Z,0
2018-12-25T01:09:59.050Z,0
2018-12-25T01:11:00.012Z,0
2018-12-25T01:12:00.968Z,0
2018-12-25T01:13:01.905Z,0
2018-12-25T01:14:02.862Z,0
2018-12-25T01:15:03.270Z,0
2018-12-25T01:16:04.684Z,0
2018-12-25T01:17:05.986Z,0
2018-12-25T01:18:06.392Z,0
2018-12-25T01:19:07.201Z,0
2018-12-25T01:20:08.161Z,0
2018-12-25T01:21:08.843Z,0
2018-12-25T01:22:09.245Z,0
2018-12-25T01:23:10.681Z,0
2018-12-25T01:24:11.994Z,0
2018-12-25T01:25:12.491Z,0
2018-12-25T01:26:12.907Z,0
2018-12-25T01:27:14.146Z,0
2018-12-25T01:28:15.174Z,0
2018-12-25T01:29:15.859Z,0
2018-12-25T01:30:16.273Z,0
2018-12-25T01:31:17.965Z,0
2018-12-25T01:32:18.097Z,0
2018-12-25T01:33:19.525Z,0
2018-12-25T01:34:20.493Z,0
2018-12-25T01:35:20.898Z,0
2018-12-25T01:36:21.599Z,0
2018-12-25T01:37:22.845Z,0
2018-12-25T01:38:23.256Z,0
2018-12-25T01:39:24.227Z,0
2018-12-25T01:40:25.194Z,0
2018-12-25T01:41:26.441Z,0
2018-12-25T01:42:26.406Z,0
2018-12-25T01:43:27.026Z,0
2018-12-25T01:44:27.527Z,0
2018-12-25T01:45:27.666Z,0
2018-12-25T01:46:28.366Z,0
2018-12-25T01:47:29.332Z,0
2018-12-25T01:48:29.022Z,0
2018-12-25T01:49:34.212Z,0
2018-12-25T01:50:34.624Z,0
2018-12-25T01:51:36.035Z,0
2018-12-25T01:52:37.002Z,0
2018-12-25T01:53:38.096Z,0
2018-12-25T01:54:38.503Z,0
2018-12-25T01:55:39.190Z,0
2018-12-25T01:56:39.798Z,0
2018-12-25T01:57:40.495Z,0
2018-12-25T01:58:41.182Z,0
2018-12-25T01:59:41.590Z,0
2018-12-25T02:00:42.364Z,0
2018-12-25T02:01:43.050Z,0
2018-12-25T02:02:43.551Z,0
2018-12-25T02:03:43.662Z,0
2018-12-25T02:04:44.072Z,0
2018-12-25T02:05:44.849Z,0
2018-12-25T02:06:45.258Z,0
2018-12-25T02:07:46.676Z,0
2018-12-25T02:08:47.717Z,0
2018-12-25T02:09:48.845Z,0
2018-12-25T02:10:50.813Z,0
2018-12-25T02:11:51.777Z,0
2018-12-25T02:12:52.470Z,0
2018-12-25T02:13:53.591Z,0
2018-12-25T02:14:54.002Z,0
2018-12-25T02:15:54.743Z,0
2018-12-25T02:16:55.153Z,0
2018-12-25T02:17:56.837Z,0
2018-12-25T02:18:56.981Z,0
2018-12-25T02:19:58.392Z,0
2018-12-25T02:20:59.079Z,0
2018-12-25T02:21:59.766Z,0
2018-12-25T02:23:00.175Z,0
2018-12-25T02:24:01.285Z,0
2018-12-25T02:25:01.697Z,0
2018-12-25T02:26:02.771Z,0
2018-12-25T02:27:03.182Z,0
2018-12-25T02:28:03.592Z,0
2018-12-25T02:29:04.840Z,0
2018-12-25T02:30:06.084Z,0
2018-12-25T02:31:06.098Z,0
2018-12-25T02:32:06.069Z,0
2018-12-25T02:33:07.311Z,0
2018-12-25T02:34:08.436Z,0
2018-12-25T02:35:09.682Z,0
2018-12-25T02:36:09.825Z,0
2018-12-25T02:37:11.084Z,0
2018-12-25T02:38:12.052Z,0
2018-12-25T02:39:12.293Z,0
2018-12-25T02:40:13.668Z,0
2018-12-25T02:41:13.919Z,0
2018-12-25T02:42:15.163Z,0
2018-12-25T02:43:16.695Z,0
2018-12-25T02:44:16.187Z,0
2018-12-25T02:45:17.884Z,0
2018-12-25T02:46:18.668Z,0
2018-12-25T02:47:19.633Z,0
2018-12-25T02:48:20.886Z,0
2018-12-25T02:49:20.582Z,0
2018-12-25T02:50:21.415Z,0
2018-12-25T02:51:21.536Z,0
2018-12-25T02:52:22.867Z,0
2018-12-25T02:53:22.839Z,0
2018-12-25T02:54:23.943Z,0
2018-12-25T02:55:24.530Z,0
2018-12-25T02:56:24.948Z,0
2018-12-25T02:57:26.479Z,0
2018-12-25T02:58:26.885Z,0
2018-12-25T02:59:28.823Z,0
2018-12-25T03:00:28.799Z,0
2018-12-25T03:01:29.782Z,0
2018-12-25T03:02:31.032Z,0
2018-12-25T03:03:31.000Z,0
2018-12-25T03:04:31.516Z,0
2018-12-25T03:05:32.262Z,0
2018-12-25T03:06:32.503Z,0
2018-12-25T03:07:33.477Z,0
2018-12-25T03:08:34.257Z,0
2018-12-25T03:09:34.949Z,0
2018-12-25T03:10:35.195Z,0
2018-12-25T03:11:36.861Z,0
2018-12-25T03:12:36.558Z,0
2018-12-25T03:13:37.543Z,0
2018-12-25T03:14:37.650Z,0
2018-12-25T03:15:39.182Z,0
2018-12-25T03:16:38.944Z,0
2018-12-25T03:17:39.908Z,0
2018-12-25T03:18:41.289Z,0
2018-12-25T03:19:42.255Z,0
2018-12-25T03:20:41.946Z,0
2018-12-25T03:21:42.920Z,0
2018-12-25T03:22:43.620Z,0
2018-12-25T03:23:44.588Z,0
2018-12-25T03:24:45.707Z,0
2018-12-25T03:25:46.396Z,0
2018-12-25T03:26:47.473Z,0
2018-12-25T03:27:47.729Z,0
2018-12-25T03:28:49.528Z,0
2018-12-25T03:29:49.250Z,0
2018-12-25T03:30:50.813Z,0
2018-12-25T03:31:52.478Z,0
2018-12-25T03:32:53.633Z,0
2018-12-25T03:33:52.927Z,0
2018-12-25T03:34:53.753Z,0
2018-12-25T03:35:54.172Z,0
2018-12-25T03:36:54.863Z,0
2018-12-25T03:37:55.407Z,0
2018-12-25T03:38:56.481Z,0
2018-12-25T03:39:57.730Z,0
2018-12-25T03:40:58.432Z,0
2018-12-25T03:41:59.153Z,0
2018-12-25T03:43:00.403Z,0
2018-12-25T03:44:00.926Z,0
2018-12-25T03:45:01.599Z,0
2018-12-25T03:46:01.846Z,0
2018-12-25T03:47:02.587Z,0
2018-12-25T03:48:03.844Z,0
2018-12-25T03:49:04.124Z,0
2018-12-25T03:50:17.415Z,0
2018-12-25T03:51:17.265Z,0
2018-12-25T03:52:18.509Z,0
2018-12-25T03:53:18.494Z,0
2018-12-25T03:54:20.019Z,0
2018-12-25T03:55:20.004Z,0
2018-12-25T03:56:21.525Z,0
2018-12-25T03:57:22.302Z,0
2018-12-25T03:58:22.009Z,0
2018-12-25T03:59:22.970Z,0
2018-12-25T04:00:24.778Z,0
2018-12-25T04:01:26.321Z,0
2018-12-25T04:02:26.565Z,0
2018-12-25T04:03:26.816Z,0
2018-12-25T04:04:27.795Z,0
2018-12-25T04:05:28.053Z,0
2018-12-25T04:06:28.463Z,0
2018-12-25T04:07:29.427Z,0
2018-12-25T04:08:30.124Z,0
2018-12-25T04:09:30.382Z,0
2018-12-25T04:10:31.905Z,0
2018-12-25T04:11:32.858Z,0
2018-12-25T04:12:33.423Z,0
2018-12-25T04:13:33.194Z,0
2018-12-25T04:14:34.001Z,0
2018-12-25T04:15:34.355Z,0
2018-12-25T04:16:33.779Z,0
2018-12-25T04:17:36.026Z,0
2018-12-25T04:18:35.439Z,0
2018-12-25T04:19:37.242Z,0
2018-12-25T04:20:37.207Z,0
2018-12-25T04:21:38.907Z,0
2018-12-25T04:22:39.230Z,0
2018-12-25T04:23:40.470Z,0
2018-12-25T04:24:41.545Z,0
2018-12-25T04:25:42.229Z,0
2018-12-25T04:26:43.584Z,0
2018-12-25T04:27:43.550Z,0
2018-12-25T04:28:44.748Z,0
2018-12-25T04:29:45.730Z,0
2018-12-25T04:30:46.420Z,0
2018-12-25T04:31:47.808Z,0
2018-12-25T04:32:48.222Z,0
2018-12-25T04:33:49.587Z,0
2018-12-25T04:34:50.550Z,0
2018-12-25T04:35:51.521Z,0
2018-12-25T04:36:51.490Z,0
2018-12-25T04:37:51.900Z,0
2018-12-25T04:38:52.717Z,0
2018-12-25T04:39:53.404Z,0
2018-12-25T04:40:54.927Z,0
2018-12-25T04:41:55.056Z,0
2018-12-25T04:42:55.763Z,0
2018-12-25T04:43:56.458Z,0
2018-12-25T04:44:57.140Z,0
2018-12-25T04:45:57.996Z,0
2018-12-25T04:46:58.970Z,0
2018-12-25T04:47:59.231Z,0
2018-12-25T04:49:00.197Z,0
2018-12-25T04:50:00.607Z,0
2018-12-25T04:51:01.684Z,0
2018-12-25T04:52:02.052Z,0
2018-12-25T04:53:02.740Z,0
2018-12-25T04:54:04.072Z,0
2018-12-25T04:55:04.772Z,0
2018-12-25T04:56:05.463Z,0
2018-12-25T04:57:05.920Z,0
2018-12-25T04:58:07.441Z,0
2018-12-25T04:59:08.412Z,0
2018-12-25T05:00:08.373Z,0
2018-12-25T05:01:09.341Z,0
2018-12-25T05:02:09.899Z,0
2018-12-25T05:03:11.585Z,0
2018-12-25T05:04:12.277Z,0
2018-12-25T05:05:13.520Z,0
2018-12-25T05:06:14.487Z,0
2018-12-25T05:07:15.175Z,0
2018-12-25T05:08:16.142Z,0
2018-12-25T05:09:16.827Z,0
2018-12-25T05:10:17.524Z,0
2018-12-25T05:11:17.944Z,0
2018-12-25T05:12:18.877Z,0
2018-12-25T05:13:19.006Z,0
2018-12-25T05:14:19.740Z,0
2018-12-25T05:15:20.149Z,0
2018-12-25T05:16:21.115Z,0
2018-12-25T05:17:21.525Z,0
2018-12-25T05:18:22.770Z,0
2018-12-25T05:19:23.258Z,0
2018-12-25T05:20:23.949Z,0
2018-12-25T05:21:26.186Z,0
2018-12-25T05:22:26.580Z,0
2018-12-25T05:23:26.991Z,0
2018-12-25T05:24:27.679Z,0
2018-12-25T05:25:28.093Z,0
2018-12-25T05:26:29.052Z,0
2018-12-25T05:27:29.786Z,0
2018-12-25T05:28:30.476Z,0
2018-12-25T05:29:31.171Z,0
2018-12-25T05:30:31.864Z,0
2018-12-25T05:31:33.107Z,0
2018-12-25T05:32:34.234Z,0
2018-12-25T05:33:34.922Z,0
2018-12-25T05:34:35.886Z,0
2018-12-25T05:35:36.599Z,0
2018-12-25T05:36:37.011Z,0
2018-12-25T05:37:37.419Z,0
2018-12-25T05:38:37.904Z,0
2018-12-25T05:39:38.868Z,0
2018-12-25T05:40:40.835Z,0
2018-12-25T05:41:41.520Z,0
2018-12-25T05:42:42.070Z,0
2018-12-25T05:43:43.033Z,0
2018-12-25T05:44:45.152Z,0
2018-12-25T05:45:46.411Z,0
2018-12-25T05:46:46.824Z,0
2018-12-25T05:47:47.609Z,0
2018-12-25T05:48:47.744Z,0
2018-12-25T05:49:48.802Z,0
2018-12-25T05:50:49.213Z,0
2018-12-25T05:51:49.422Z,0
2018-12-25T05:52:50.541Z,0
2018-12-25T05:53:51.506Z,0
2018-12-25T05:54:51.639Z,0
2018-12-25T05:55:52.046Z,0
2018-12-25T05:56:53.287Z,0
2018-12-25T05:57:53.250Z,0
2018-12-25T05:58:53.658Z,0
2018-12-25T05:59:54.069Z,0
2018-12-25T06:00:54.586Z,0
2018-12-25T06:01:55.274Z,0
2018-12-25T06:02:55.543Z,0
2018-12-25T06:03:56.228Z,0
2018-12-25T06:04:56.641Z,0
2018-12-25T06:05:57.052Z,0
2018-12-25T06:06:59.017Z,0
2018-12-25T06:07:59.301Z,0
2018-12-25T06:08:59.985Z,0
2018-12-25T06:10:00.399Z,0
2018-12-25T06:11:01.818Z,0
2018-12-25T06:12:02.226Z,0
2018-12-25T06:13:03.354Z,0
2018-12-25T06:14:03.763Z,0
2018-12-25T06:15:04.182Z,0
2018-12-25T06:16:04.702Z,0
2018-12-25T06:17:05.406Z,0
2018-12-25T06:18:06.819Z,0
2018-12-25T06:19:06.953Z,0
2018-12-25T06:20:07.711Z,0
2018-12-25T06:21:08.675Z,0
2018-12-25T06:22:08.807Z,0
2018-12-25T06:23:10.207Z,0
2018-12-25T06:24:10.617Z,0
2018-12-25T06:25:11.875Z,0
2018-12-25T06:26:12.115Z,0
2018-12-25T06:27:13.441Z,0
2018-12-25T06:28:13.850Z,0
2018-12-25T06:29:14.551Z,0
2018-12-25T06:30:14.959Z,0
2018-12-25T06:31:16.366Z,0
2018-12-25T06:32:17.333Z,4
2018-12-25T06:33:17.703Z,4
2018-12-25T06:34:18.668Z,0
2018-12-25T06:35:19.078Z,4
2018-12-25T06:36:20.123Z,0
2018-12-25T06:37:21.364Z,4
2018-12-25T06:38:22.618Z,4
2018-12-25T06:39:23.025Z,4
2018-12-25T06:40:23.990Z,8
2018-12-25T06:41:24.399Z,8
2018-12-25T06:42:26.365Z,8
2018-12-25T06:43:26.244Z,12
2018-12-25T06:44:27.375Z,16
2018-12-25T06:45:29.158Z,16
2018-12-25T06:46:29.568Z,20
2018-12-25T06:47:30.533Z,20
2018-12-25T06:48:31.223Z,24
2018-12-25T06:49:32.186Z,28
2018-12-25T06:50:32.872Z,32
2018-12-25T06:51:34.003Z,32
2018-12-25T06:52:35.412Z,40
2018-12-25T06:53:35.785Z,48
2018-12-25T06:54:36.476Z,48
2018-12-25T06:55:36.934Z,48
2018-12-25T06:56:37.905Z,52
2018-12-25T06:57:38.147Z,52
2018-12-25T06:58:38.836Z,56
2018-12-25T06:59:40.082Z,64
2018-12-25T07:00:40.327Z,72
2018-12-25T07:01:40.462Z,76
2018-12-25T07:02:40.874Z,84
2018-12-25T07:03:41.729Z,96
2018-12-25T07:04:42.859Z,104
2018-12-25T07:05:44.271Z,116
2018-12-25T07:06:45.238Z,124
2018-12-25T07:07:46.210Z,136
2018-12-25T07:08:46.345Z,144
2018-12-25T07:09:46.759Z,148
2018-12-25T07:10:48.172Z,160
2018-12-25T07:11:48.601Z,172
2018-12-25T07:12:49.008Z,192
2018-12-25T07:13:49.556Z,208
2018-12-25T07:14:50.526Z,228
2018-12-25T07:15:51.215Z,244
2018-12-25T07:16:51.911Z,256
2018-12-25T07:17:53.829Z,264
2018-12-25T07:18:54.243Z,272
2018-12-25T07:19:55.214Z,288
2018-12-25T07:20:55.209Z,304
2018-12-25T07:21:55.625Z,312
2018-12-25T07:22:56.600Z,324
2018-12-25T07:23:56.143Z,336
2018-12-25T07:24:56.830Z,352
2018-12-25T07:25:57.802Z,376
2018-12-25T07:26:58.491Z,412
2018-12-25T07:27:58.906Z,444
2018-12-25T07:28:59.873Z,476
2018-12-25T07:30:00.384Z,524
2018-12-25T07:31:01.355Z,588
2018-12-25T07:32:02.603Z,648
2018-12-25T07:33:03.291Z,684
2018-12-25T07:34:04.125Z,696
2018-12-25T07:35:05.097Z,708
2018-12-25T07:36:04.781Z,732
2018-12-25T07:37:05.917Z,752
2018-12-25T07:38:07.050Z,772
2018-12-25T07:39:07.473Z,800
2018-12-25T07:40:08.473Z,840
2018-12-25T07:41:08.887Z,872
2018-12-25T07:42:10.497Z,912
2018-12-25T07:43:10.633Z,972
2018-12-25T07:44:12.415Z,1028
2018-12-25T07:45:13.115Z,1068
2018-12-25T07:46:13.807Z,1068
2018-12-25T07:47:14.498Z,1028
2018-12-25T07:48:15.905Z,992
2018-12-25T07:49:17.319Z,960
2018-12-25T07:50:17.827Z,972
2018-12-25T07:51:23.527Z,992
2018-12-25T07:52:22.937Z,1008
2018-12-25T07:53:23.350Z,1020
2018-12-25T07:54:24.181Z,1084
2018-12-25T07:55:24.550Z,1160
2018-12-25T07:56:25.608Z,1220
2018-12-25T07:57:26.302Z,1248
2018-12-25T07:58:26.995Z,1236
2018-12-25T07:59:27.963Z,1164
2018-12-25T08:00:28.658Z,1044
2018-12-25T08:01:29.077Z,936
2018-12-25T08:02:29.768Z,856
2018-12-25T08:03:30.180Z,804
2018-12-25T08:04:30.722Z,776
2018-12-25T08:05:31.413Z,800
2018-12-25T08:06:32.381Z,840
2018-12-25T08:07:33.352Z,828
2018-12-25T08:08:33.763Z,788
2018-12-25T08:09:34.940Z,740
2018-12-25T08:10:36.353Z,704
2018-12-25T08:11:38.048Z,688
2018-12-25T08:12:38.458Z,676
2018-12-25T08:13:38.869Z,672
2018-12-25T08:14:39.694Z,684
2018-12-25T08:15:40.744Z,720
2018-12-25T08:16:41.441Z,764
2018-12-25T08:17:41.850Z,772
2018-12-25T08:18:42.548Z,768
2018-12-25T08:19:42.962Z,756
2018-12-25T08:20:44.301Z,736
2018-12-25T08:21:45.275Z,728
2018-12-25T08:22:45.689Z,728
2018-12-25T08:23:46.379Z,732
2018-12-25T08:24:47.194Z,736
2018-12-25T08:25:47.882Z,728
2018-12-25T08:26:49.125Z,720
2018-12-25T08:27:49.539Z,724
2018-12-25T08:28:50.272Z,716
2018-12-25T08:29:50.965Z,740
2018-12-25T08:30:51.093Z,752
2018-12-25T08:31:52.505Z,756
2018-12-25T08:32:53.473Z,776
2018-12-25T08:33:53.951Z,792
2018-12-25T08:34:55.457Z,792
2018-12-25T08:35:55.594Z,776
2018-12-25T08:36:56.011Z,760
2018-12-25T08:37:56.700Z,756
2018-12-25T08:38:57.464Z,768
2018-12-25T08:39:58.437Z,796
2018-12-25T08:40:58.129Z,816
2018-12-25T08:41:58.586Z,888
2018-12-25T08:42:59.001Z,1144
2018-12-25T08:44:00.692Z,1196
2018-12-25T08:45:02.110Z,1360
2018-12-25T08:46:02.529Z,1760
2018-12-25T08:47:04.693Z,2372
2018-12-25T08:48:05.107Z,2768
2018-12-25T08:49:05.527Z,3212
2018-12-25T08:50:06.499Z,3792
2018-12-25T08:51:06.639Z,4144
2018-12-25T08:52:07.611Z,4412
2018-12-25T08:53:08.311Z,4388
2018-12-25T08:54:08.717Z,4336
2018-12-25T08:55:09.642Z,4512
2018-12-25T08:56:10.333Z,4876
2018-12-25T08:57:12.133Z,5072
2018-12-25T08:58:12.103Z,4860
2018-12-25T08:59:12.524Z,5088
2018-12-25T09:00:13.496Z,5552
2018-12-25T09:01:14.465Z,6068
2018-12-25T09:02:14.886Z,6396
2018-12-25T09:03:15.298Z,6360
2018-12-25T09:04:15.438Z,6212
2018-12-25T09:05:16.850Z,5908
2018-12-25T09:06:17.366Z,5820
2018-12-25T09:07:18.331Z,5948
2018-12-25T09:08:18.748Z,5696
2018-12-25T09:09:19.532Z,6132
2018-12-25T09:10:20.504Z,6604
2018-12-25T09:11:21.021Z,6620
2018-12-25T09:12:21.439Z,6376
2018-12-25T09:13:21.856Z,6764
2018-12-25T09:14:22.930Z,6988
2018-12-25T09:15:23.691Z,7472
2018-12-25T09:16:23.831Z,7900
2018-12-25T09:17:25.259Z,8268
2018-12-25T09:18:25.948Z,7680
2018-12-25T09:19:26.642Z,7220
2018-12-25T09:20:27.612Z,6728
2018-12-25T09:21:28.307Z,6040
2018-12-25T09:22:28.782Z,5392
2018-12-25T09:23:29.197Z,5032
2018-12-25T09:24:29.889Z,4848
2018-12-25T09:25:30.741Z,4528
2018-12-25T09:26:32.156Z,4384
2018-12-25T09:27:32.569Z,4532
2018-12-25T09:28:33.401Z,4564
2018-12-25T09:29:33.539Z,4496
2018-12-25T09:30:34.961Z,4300
2018-12-25T09:31:35.936Z,4108
2018-12-25T09:32:36.074Z,3648
2018-12-25T09:33:36.490Z,3420
2018-12-25T09:34:37.181Z,3392
2018-12-25T09:35:37.732Z,3296
2018-12-25T09:36:37.943Z,3060
2018-12-25T09:37:39.079Z,2716
2018-12-25T09:38:39.776Z,2628
2018-12-25T09:39:40.469Z,2556
2018-12-25T09:40:40.445Z,2396
2018-12-25T09:41:41.417Z,2236
2018-12-25T09:42:41.555Z,2352
2018-12-25T09:43:42.967Z,2676
2018-12-25T09:44:43.383Z,2932
2018-12-25T09:45:44.501Z,3144
2018-12-25T09:46:45.639Z,3364
2018-12-25T09:47:47.055Z,3544
2018-12-25T09:48:47.470Z,3708
2018-12-25T09:49:48.886Z,3944
2018-12-25T09:50:49.303Z,4096
2018-12-25T09:51:56.288Z,4196
2018-12-25T09:52:02.310Z,4204
2018-12-25T09:53:03.200Z,4388
2018-12-25T09:54:04.178Z,4572
2018-12-25T09:55:04.707Z,4708
2018-12-25T09:56:05.399Z,4580
2018-12-25T09:57:05.821Z,4280
2018-12-25T09:58:06.533Z,3904
2018-12-25T09:59:07.226Z,3720
2018-12-25T10:00:07.644Z,3472
2018-12-25T10:01:08.335Z,3160
2018-12-25T10:02:09.474Z,3044
2018-12-25T10:03:10.692Z,2992
2018-12-25T10:04:11.662Z,2972
2018-12-25T10:05:12.359Z,2968
2018-12-25T10:06:13.330Z,2972
2018-12-25T10:07:14.023Z,2988
2018-12-25T10:08:14.440Z,2928
2018-12-25T10:09:14.855Z,2840
2018-12-25T10:10:16.103Z,2760
2018-12-25T10:11:18.074Z,2804
2018-12-25T10:12:18.765Z,2916
2018-12-25T10:13:19.182Z,2952
2018-12-25T10:14:19.881Z,2988
2018-12-25T10:15:21.015Z,3052
2018-12-25T10:16:22.465Z,3136
2018-12-25T10:17:23.159Z,3272
2018-12-25T10:18:23.952Z,3748
2018-12-25T10:19:24.648Z,3760
2018-12-25T10:20:25.105Z,3536
2018-12-25T10:21:26.078Z,3364
2018-12-25T10:22:27.162Z,3156
2018-12-25T10:23:27.987Z,3116
2018-12-25T10:24:28.968Z,3272
2018-12-25T10:25:29.732Z,3540
2018-12-25T10:26:30.156Z,3096
2018-12-25T10:27:30.940Z,3052
2018-12-25T10:28:31.358Z,2904
2018-12-25T10:29:31.519Z,2760
2018-12-25T10:30:32.209Z,2848
2018-12-25T10:31:32.929Z,3116
2018-12-25T10:32:33.630Z,3204
2018-12-25T10:33:34.177Z,3172
2018-12-25T10:34:34.593Z,3244
2018-12-25T10:35:35.286Z,3068
2018-12-25T10:36:35.710Z,2900
2018-12-25T10:37:36.403Z,3068
2018-12-25T10:38:37.097Z,3556
2018-12-25T10:39:37.863Z,3908
2018-12-25T10:40:38.556Z,4740
2018-12-25T10:41:39.248Z,5176
2018-12-25T10:42:40.231Z,5504
2018-12-25T10:43:40.616Z,5876
2018-12-25T10:44:41.667Z,5624
2018-12-25T10:45:41.918Z,5728
2018-12-25T10:46:43.335Z,6072
2018-12-25T10:47:44.031Z,5952
2018-12-25T10:48:44.725Z,5432
2018-12-25T10:49:45.976Z,5188
2018-12-25T10:50:46.667Z,5148
2018-12-25T10:51:47.087Z,5304
2018-12-25T10:52:47.229Z,5336
2018-12-25T10:53:48.328Z,5376
2018-12-25T10:54:48.828Z,5388
2018-12-25T10:55:49.244Z,5248
2018-12-25T10:56:50.381Z,5152
2018-12-25T10:57:52.074Z,5112
2018-12-25T10:58:52.770Z,5032
2018-12-25T10:59:53.557Z,4896
2018-12-25T11:00:53.696Z,4676
2018-12-25T11:01:54.390Z,4508
2018-12-25T11:02:54.527Z,4376
2018-12-25T11:03:55.386Z,4124
2018-12-25T11:04:55.526Z,3884
2018-12-25T11:05:57.053Z,3696
2018-12-25T11:06:57.470Z,3576
2018-12-25T11:07:58.442Z,3344
2018-12-25T11:09:10.871Z,3116
2018-12-25T11:10:11.549Z,3012
2018-12-25T11:11:12.056Z,2968
2018-12-25T11:12:13.028Z,2896
2018-12-25T11:13:13.169Z,2776
2018-12-25T11:14:13.589Z,2648
2018-12-25T11:15:15.280Z,2560
2018-12-25T11:16:15.694Z,2480
2018-12-25T11:17:16.387Z,2432
2018-12-25T11:18:17.527Z,2492
2018-12-25T11:19:18.122Z,2532
2018-12-25T11:20:18.951Z,2444
2018-12-25T11:21:19.383Z,2228
2018-12-25T11:22:22.060Z,2092
2018-12-25T11:23:22.477Z,2092
2018-12-25T11:24:23.726Z,2192
2018-12-25T11:25:24.143Z,2308
2018-12-25T11:26:24.281Z,2356
2018-12-25T11:27:24.698Z,2416
2018-12-25T11:28:26.118Z,2496
2018-12-25T11:29:27.089Z,2456
2018-12-25T11:30:27.632Z,2276
2018-12-25T11:31:29.050Z,2132
2018-12-25T11:32:29.738Z,2036
2018-12-25T11:33:30.435Z,1960
2018-12-25T11:34:30.852Z,1972
2018-12-25T11:35:32.545Z,2016
2018-12-25T11:36:32.960Z,2076
2018-12-25T11:37:33.104Z,1964
2018-12-25T11:38:33.860Z,1792
2018-12-25T11:39:34.554Z,1640
2018-12-25T11:40:34.509Z,1556
2018-12-25T11:41:35.482Z,1588
2018-12-25T11:42:35.896Z,1672
2018-12-25T11:43:36.590Z,1768
2018-12-25T11:44:37.282Z,1880
2018-12-25T11:45:38.597Z,1916
2018-12-25T11:46:39.016Z,1888
2018-12-25T11:47:39.433Z,1888
2018-12-25T11:48:40.568Z,1880
2018-12-25T11:49:41.705Z,1888
2018-12-25T11:50:42.281Z,1852
2018-12-25T11:51:42.980Z,1800
2018-12-25T11:52:43.395Z,1736
2018-12-25T11:53:45.089Z,1648
2018-12-25T11:54:45.781Z,1608
2018-12-25T11:55:46.473Z,1624
2018-12-25T11:56:47.614Z,1640
2018-12-25T11:57:48.030Z,1620
2018-12-25T11:58:49.154Z,1572
2018-12-25T11:59:49.368Z,1516
2018-12-25T12:00:49.775Z,1492
2018-12-25T12:01:50.468Z,1484
2018-12-25T12:02:50.887Z,1472
2018-12-25T12:03:51.304Z,1472
2018-12-25T12:04:51.554Z,1480
2018-12-25T12:05:53.246Z,1504
2018-12-25T12:06:53.666Z,1560
2018-12-25T12:07:54.638Z,1668
2018-12-25T12:08:55.608Z,1800
2018-12-25T12:09:56.304Z,1908
2018-12-25T12:10:57.697Z,1972
2018-12-25T12:11:58.391Z,2008
2018-12-25T12:12:58.806Z,2044
2018-12-25T12:13:59.607Z,2052
2018-12-25T12:15:00.621Z,2008
2018-12-25T12:16:01.318Z,1936
2018-12-25T12:17:01.453Z,1880
2018-12-25T12:18:02.702Z,1840
2018-12-25T12:19:02.672Z,1804
2018-12-25T12:20:03.663Z,1744
2018-12-25T12:21:04.479Z,1720
2018-12-25T12:22:06.185Z,1704
2018-12-25T12:23:06.602Z,1708
2018-12-25T12:24:07.296Z,1740
2018-12-25T12:25:07.712Z,1792
2018-12-25T12:26:08.129Z,1848
2018-12-25T12:27:08.541Z,1896
2018-12-25T12:28:08.964Z,1944
2018-12-25T12:29:09.378Z,1964
2018-12-25T12:30:10.792Z,1968
2018-12-25T12:31:11.347Z,1964
2018-12-25T12:32:12.785Z,1936
2018-12-25T12:33:15.460Z,1904
2018-12-25T12:34:14.020Z,1856
2018-12-25T12:35:15.433Z,1812
2018-12-25T12:36:15.944Z,1784
2018-12-25T12:37:16.633Z,1772
2018-12-25T12:38:16.778Z,1776
2018-12-25T12:39:17.752Z,1820
2018-12-25T12:40:18.445Z,1896
2018-12-25T12:41:19.005Z,2016
2018-12-25T12:42:19.435Z,2120
2018-12-25T12:43:20.589Z,2168
2018-12-25T12:44:21.556Z,2168
2018-12-25T12:45:21.695Z,2132
2018-12-25T12:46:22.667Z,2004
2018-12-25T12:47:23.085Z,1848
2018-12-25T12:48:23.166Z,1752
2018-12-25T12:49:23.847Z,1728
2018-12-25T12:50:24.264Z,1720
2018-12-25T12:51:27.721Z,1696
2018-12-25T12:52:25.860Z,1692
2018-12-25T12:53:27.276Z,1732
2018-12-25T12:54:28.036Z,1792
2018-12-25T12:55:28.741Z,1820
2018-12-25T12:56:29.875Z,1828
2018-12-25T12:57:30.585Z,1764
2018-12-25T12:58:31.722Z,1680
2018-12-25T12:59:32.136Z,1644
2018-12-25T13:00:33.105Z,1644
2018-12-25T13:01:33.939Z,1644
2018-12-25T13:02:34.358Z,1672
2018-12-25T13:03:35.378Z,1672
2018-12-25T13:04:36.072Z,1628
2018-12-25T13:05:36.332Z,1580
2018-12-25T13:06:37.024Z,1560
2018-12-25T13:07:37.718Z,1540
2018-12-25T13:08:37.856Z,1520
2018-12-25T13:09:38.830Z,1492
2018-12-25T13:10:40.083Z,1448
2018-12-25T13:11:40.505Z,1412
2018-12-25T13:12:41.201Z,1372
2018-12-25T13:13:41.445Z,1340
2018-12-25T13:14:42.413Z,1332
2018-12-25T13:15:43.106Z,1308
2018-12-25T13:16:43.800Z,1324
2018-12-25T13:17:46.290Z,1320
2018-12-25T13:18:44.980Z,1368
2018-12-25T13:19:45.118Z,1388
2018-12-25T13:20:45.535Z,1400
2018-12-25T13:21:46.084Z,1404
2018-12-25T13:22:59.090Z,1412
2018-12-25T13:23:59.960Z,1408
2018-12-25T13:25:00.378Z,1364
2018-12-25T13:26:01.075Z,1300
2018-12-25T13:27:02.131Z,1280
2018-12-25T13:28:03.103Z,1232
2018-12-25T13:29:04.072Z,1192
2018-12-25T13:30:04.304Z,1180
2018-12-25T13:31:05.000Z,1172
2018-12-25T13:32:07.266Z,1156
2018-12-25T13:33:07.617Z,1124
2018-12-25T13:34:07.724Z,1112
2018-12-25T13:35:08.972Z,1112
2018-12-25T13:36:09.384Z,1144
2018-12-25T13:37:09.802Z,1224
2018-12-25T13:38:10.294Z,1308
2018-12-25T13:39:10.985Z,1360
2018-12-25T13:40:11.400Z,1444
2018-12-25T13:41:11.815Z,1360
2018-12-25T13:42:13.066Z,1216
2018-12-25T13:43:13.205Z,1140
2018-12-25T13:44:14.327Z,1068
2018-12-25T13:45:15.022Z,1048
2018-12-25T13:46:15.713Z,968
2018-12-25T13:47:16.124Z,872
2018-12-25T13:48:17.539Z,788
2018-12-25T13:49:18.337Z,764
2018-12-25T13:50:19.306Z,736
2018-12-25T13:51:20.278Z,728
2018-12-25T13:52:20.782Z,712
2018-12-25T13:53:21.202Z,692
2018-12-25T13:54:21.745Z,692
2018-12-25T13:55:22.470Z,716
2018-12-25T13:56:23.158Z,728
2018-12-25T13:57:23.573Z,704
2018-12-25T13:58:24.824Z,740
2018-12-25T13:59:25.240Z,796
2018-12-25T14:00:26.022Z,836
2018-12-25T14:01:26.437Z,824
2018-12-25T14:02:26.855Z,812
2018-12-25T14:03:28.266Z,788
2018-12-25T14:04:29.105Z,760
2018-12-25T14:05:29.799Z,704
2018-12-25T14:06:30.214Z,644
2018-12-25T14:07:31.182Z,596
2018-12-25T14:08:31.318Z,576
2018-12-25T14:09:32.011Z,572
2018-12-25T14:10:32.149Z,568
2018-12-25T14:11:33.397Z,552
2018-12-25T14:12:34.207Z,544
2018-12-25T14:13:34.896Z,540